Time;durP1;ratioP1;P1;durP2;ratioP2;P2;SDS_P1;SDS_P2;PMS_P1;PMS_P2;Temp;Humidity;BMP_temperature;BMP_pressure;BME280_temperature;BME280_humidity;BME280_pressure;Samples;Min_cycle;Max_cycle;Signal;HPM_P1;HPM_P2
2022/08/22 00:01:10;;;;;;;5.00;4.50;;;;;;;;;;5074532;28;20455;-76
2022/08/22 00:03:44;;;;;;;5.87;5.30;;;;;;;;;;5074263;28;20444;-75
2022/08/22 00:06:15;;;;;;;6.40;5.10;;;;;;;;;;5074328;28;20461;-75
2022/08/22 00:08:48;;;;;;;5.37;4.97;;;;;;;;;;5074080;28;20448;-75
2022/08/22 00:11:17;;;;;;;4.50;4.10;;;;;;;;;;5086404;28;20487;-76
2022/08/22 00:13:48;;;;;;;5.53;5.03;;;;;;;;;;5094031;28;20443;-76
2022/08/22 00:16:17;;;;;;;5.10;4.60;;;;;;;;;;5094118;28;20486;-76
2022/08/22 00:18:48;;;;;;;6.13;5.33;;;;;;;;;;5094654;28;20493;-75
2022/08/22 00:21:17;;;;;;;5.43;4.93;;;;;;;;;;5093954;28;20436;-76
2022/08/22 00:23:47;;;;;;;7.67;4.73;;;;;;;;;;5094061;28;20434;-75
2022/08/22 00:26:23;;;;;;;6.20;5.10;;;;;;;;;;5094049;28;20468;-76
2022/08/22 00:28:52;;;;;;;5.97;5.27;;;;;;;;;;5093977;28;20450;-76
2022/08/22 00:31:26;;;;;;;6.70;5.03;;;;;;;;;;5093913;28;20480;-75
2022/08/22 00:34:00;;;;;;;5.80;5.30;;;;;;;;;;5094115;28;20461;-75
2022/08/22 00:36:30;;;;;;;6.20;4.23;;;;;;;;;;5094334;28;20495;-76
2022/08/22 00:39:03;;;;;;;6.90;5.47;;;;;;;;;;5094364;28;20814;-75
2022/08/22 00:41:45;;;;;;;4.83;4.43;;;;;;;;;;5094038;28;20432;-76
2022/08/22 00:44:42;;;;;;;5.83;4.73;;;;;;;;;;5093405;28;20443;-75
2022/08/22 00:47:20;;;;;;;5.40;4.90;;;;;;;;;;5030822;28;20526;-76
2022/08/22 00:50:00;;;;;;;5.23;4.73;;;;;;;;;;5083857;28;20889;-75
2022/08/22 00:52:48;;;;;;;5.33;4.83;;;;;;;;;;5093225;28;20443;-75
2022/08/22 00:55:26;;;;;;;4.83;4.43;;;;;;;;;;5068313;28;20455;-75
2022/08/22 00:58:02;;;;;;;6.10;4.70;;;;;;;;;;5094095;28;20439;-76
2022/08/22 01:00:33;;;;;;;4.73;4.33;;;;;;;;;;5093872;28;20436;-75
2022/08/22 01:03:13;;;;;;;5.60;4.63;;;;;;;;;;5093116;28;20462;-76
2022/08/22 01:05:52;;;;;;;5.37;4.27;;;;;;;;;;5092720;28;20981;-76
2022/08/22 01:08:37;;;;;;;5.87;4.67;;;;;;;;;;5093200;28;20538;-76
2022/08/22 01:11:16;;;;;;;4.93;4.53;;;;;;;;;;5082330;28;20555;-75
2022/08/22 01:13:54;;;;;;;4.73;4.33;;;;;;;;;;5072948;28;20471;-76
2022/08/22 01:16:47;;;;;;;4.60;4.30;;;;;;;;;;5073199;28;20533;-76
2022/08/22 01:19:35;;;;;;;5.33;4.93;;;;;;;;;;5073136;28;20441;-75
2022/08/22 01:22:26;;;;;;;4.30;4.00;;;;;;;;;;5073244;28;20467;-76
2022/08/22 01:25:17;;;;;;;5.10;4.50;;;;;;;;;;5067287;28;20449;-76
2022/08/22 01:28:03;;;;;;;6.07;5.30;;;;;;;;;;5073059;28;20445;-74
2022/08/22 01:30:47;;;;;;;5.10;4.60;;;;;;;;;;5072865;28;20480;-76
2022/08/22 01:33:32;;;;;;;5.97;5.37;;;;;;;;;;5072912;28;20445;-76
2022/08/22 01:36:18;;;;;;;5.47;4.97;;;;;;;;;;5065504;28;20461;-75
2022/08/22 01:38:57;;;;;;;5.40;5.00;;;;;;;;;;5072710;28;20440;-75
2022/08/22 01:41:30;;;;;;;5.80;5.30;;;;;;;;;;5072731;28;20511;-75
2022/08/22 01:44:03;;;;;;;5.47;4.70;;;;;;;;;;5072356;28;20497;-76
2022/08/22 01:46:34;;;;;;;5.73;5.20;;;;;;;;;;5072212;28;20452;-75
2022/08/22 01:49:05;;;;;;;5.57;5.03;;;;;;;;;;5072521;28;20498;-75
2022/08/22 01:51:37;;;;;;;7.93;5.23;;;;;;;;;;5072703;28;20472;-75
2022/08/22 01:54:08;;;;;;;6.37;5.37;;;;;;;;;;5071991;28;20436;-76
2022/08/22 01:56:35;;;;;;;5.23;4.73;;;;;;;;;;5072478;28;20564;-75
2022/08/22 01:59:05;;;;;;;6.03;4.83;;;;;;;;;;5071951;28;20444;-76
2022/08/22 02:01:52;;;;;;;5.77;5.27;;;;;;;;;;5072523;28;20495;-75
2022/08/22 02:04:22;;;;;;;6.10;5.13;;;;;;;;;;5072270;28;20928;-76
2022/08/22 02:06:52;;;;;;;5.87;5.30;;;;;;;;;;5072524;28;20469;-75
2022/08/22 02:09:26;;;;;;;5.40;5.00;;;;;;;;;;5071847;28;21009;-75
2022/08/22 02:11:56;;;;;;;5.87;5.37;;;;;;;;;;5090349;28;20892;-76
2022/08/22 02:14:35;;;;;;;7.80;5.90;;;;;;;;;;5095298;28;20493;-76
2022/08/22 02:17:10;;;;;;;6.17;5.67;;;;;;;;;;5092414;28;20562;-75
2022/08/22 02:19:40;;;;;;;7.97;5.30;;;;;;;;;;5092523;28;20439;-75
2022/08/22 02:22:18;;;;;;;5.50;4.70;;;;;;;;;;5092216;28;20931;-75
2022/08/22 02:24:50;;;;;;;6.20;5.70;;;;;;;;;;5092356;28;20535;-75
2022/08/22 02:27:23;;;;;;;7.93;6.30;;;;;;;;;;5092791;28;20467;-75
2022/08/22 02:29:53;;;;;;;6.77;6.13;;;;;;;;;;5092819;28;20501;-76
2022/08/22 02:32:23;;;;;;;7.73;5.97;;;;;;;;;;5093208;28;20822;-75
2022/08/22 02:34:55;;;;;;;6.03;5.60;;;;;;;;;;5092789;28;20439;-76
2022/08/22 02:37:30;;;;;;;6.40;5.90;;;;;;;;;;5092977;28;20485;-75
2022/08/22 02:40:04;;;;;;;9.10;6.03;;;;;;;;;;5093411;28;20438;-75
2022/08/22 02:42:37;;;;;;;6.47;5.87;;;;;;;;;;5092501;28;20455;-76
2022/08/22 02:45:12;;;;;;;7.00;6.10;;;;;;;;;;5092501;28;20526;-74
2022/08/22 02:47:42;;;;;;;7.37;6.60;;;;;;;;;;5092064;28;20493;-76
2022/08/22 02:50:14;;;;;;;7.53;6.30;;;;;;;;;;5092487;28;20455;-76
2022/08/22 02:52:48;;;;;;;7.50;6.20;;;;;;;;;;5091927;28;20447;-77
2022/08/22 02:55:20;;;;;;;7.17;6.50;;;;;;;;;;5091531;28;20444;-76
2022/08/22 02:57:51;;;;;;;6.33;5.57;;;;;;;;;;5091919;28;20440;-76
2022/08/22 03:00:26;;;;;;;8.13;5.77;;;;;;;;;;5091522;28;20514;-76
2022/08/22 03:02:59;;;;;;;6.70;6.20;;;;;;;;;;5091015;28;20483;-75
2022/08/22 03:05:27;;;;;;;6.80;6.20;;;;;;;;;;5091408;28;20978;-75
2022/08/22 03:07:59;;;;;;;6.83;6.23;;;;;;;;;;5091139;28;20492;-75
2022/08/22 03:10:30;;;;;;;6.90;6.30;;;;;;;;;;5086208;28;20579;-75
2022/08/22 03:13:03;;;;;;;6.80;6.20;;;;;;;;;;5071215;28;20913;-76
2022/08/22 03:15:33;;;;;;;7.53;6.60;;;;;;;;;;5071719;28;20456;-76
2022/08/22 03:18:02;;;;;;;7.00;6.30;;;;;;;;;;5071324;28;20983;-76
2022/08/22 03:20:39;;;;;;;7.87;7.17;;;;;;;;;;5071546;28;20437;-75
2022/08/22 03:23:10;;;;;;;7.23;6.50;;;;;;;;;;5071233;28;20440;-75
2022/08/22 03:25:40;;;;;;;6.50;5.90;;;;;;;;;;5071145;28;20465;-75
2022/08/22 03:28:10;;;;;;;6.80;6.20;;;;;;;;;;5075366;28;20993;-75
2022/08/22 03:30:40;;;;;;;6.40;5.80;;;;;;;;;;5078037;28;20476;-75
2022/08/22 03:33:15;;;;;;;6.53;5.97;;;;;;;;;;5077123;28;20873;-76
2022/08/22 03:35:52;;;;;;;7.90;5.87;;;;;;;;;;5077585;28;20464;-75
2022/08/22 03:38:20;;;;;;;6.70;6.17;;;;;;;;;;5077691;28;20485;-76
2022/08/22 03:40:54;;;;;;;6.80;6.10;;;;;;;;;;5078613;28;20493;-76
2022/08/22 03:43:32;;;;;;;7.40;6.63;;;;;;;;;;5077671;28;20451;-76
2022/08/22 03:46:17;;;;;;;7.73;6.87;;;;;;;;;;5077573;28;20983;-75
2022/08/22 03:49:01;;;;;;;7.13;6.40;;;;;;;;;;5077774;28;20436;-75
2022/08/22 03:51:32;;;;;;;6.97;6.27;;;;;;;;;;5056137;28;20509;-75
2022/08/22 03:54:10;;;;;;;6.87;6.27;;;;;;;;;;5077408;28;20440;-76
2022/08/22 03:56:58;;;;;;;7.20;6.60;;;;;;;;;;5077331;28;20539;-75
2022/08/22 03:59:49;;;;;;;10.43;6.23;;;;;;;;;;5059891;28;20468;-76
2022/08/22 04:02:26;;;;;;;8.50;7.07;;;;;;;;;;5078093;28;20448;-76
2022/08/22 04:05:12;;;;;;;6.83;6.30;;;;;;;;;;5078438;28;20444;-75
2022/08/22 04:07:49;;;;;;;7.03;6.40;;;;;;;;;;5077720;28;20444;-75
2022/08/22 04:10:35;;;;;;;6.93;6.33;;;;;;;;;;5080925;28;20939;-76
2022/08/22 04:13:14;;;;;;;6.93;6.33;;;;;;;;;;5097406;28;20504;-76
2022/08/22 04:15:48;;;;;;;8.63;6.80;;;;;;;;;;5097935;28;20538;-75
2022/08/22 04:18:35;;;;;;;7.17;6.57;;;;;;;;;;5097913;28;20420;-75
2022/08/22 04:21:32;;;;;;;8.33;6.77;;;;;;;;;;5097764;28;20467;-76
2022/08/22 04:24:09;;;;;;;9.17;7.00;;;;;;;;;;5032797;28;21144;-76
2022/08/22 04:26:40;;;;;;;7.17;6.37;;;;;;;;;;5084773;28;20467;-76
2022/08/22 04:29:09;;;;;;;7.33;6.43;;;;;;;;;;5097180;28;20531;-75
2022/08/22 04:31:44;;;;;;;6.63;6.13;;;;;;;;;;5082981;28;20476;-75
2022/08/22 04:34:16;;;;;;;8.47;7.67;;;;;;;;;;5090257;28;20457;-75
2022/08/22 04:36:45;;;;;;;7.13;6.60;;;;;;;;;;5093716;28;20459;-75
2022/08/22 04:39:17;;;;;;;7.20;6.43;;;;;;;;;;5086101;28;20877;-76
2022/08/22 04:41:47;;;;;;;6.90;6.30;;;;;;;;;;5088438;28;20424;-76
2022/08/22 04:44:17;;;;;;;8.23;6.60;;;;;;;;;;5082817;28;20522;-75
2022/08/22 04:46:46;;;;;;;8.23;6.90;;;;;;;;;;5084464;28;20830;-75
2022/08/22 04:49:17;;;;;;;7.70;6.90;;;;;;;;;;5086722;28;20505;-76
2022/08/22 04:51:47;;;;;;;8.30;7.07;;;;;;;;;;5094025;28;20471;-76
2022/08/22 04:54:20;;;;;;;8.03;7.20;;;;;;;;;;5093352;28;20436;-76
2022/08/22 04:56:55;;;;;;;8.17;7.37;;;;;;;;;;5093780;28;20835;-75
2022/08/22 04:59:24;;;;;;;7.67;6.93;;;;;;;;;;5093987;28;20447;-76
2022/08/22 05:01:54;;;;;;;11.93;7.63;;;;;;;;;;5093919;28;20439;-77
2022/08/22 05:04:25;;;;;;;7.70;6.90;;;;;;;;;;5094065;28;20448;-77
2022/08/22 05:06:53;;;;;;;8.10;7.30;;;;;;;;;;5094060;28;20467;-77
2022/08/22 05:09:23;;;;;;;7.20;6.63;;;;;;;;;;5093677;28;20481;-76
2022/08/22 05:11:52;;;;;;;8.70;6.90;;;;;;;;;;5077135;28;20612;-77
2022/08/22 05:14:21;;;;;;;7.73;6.93;;;;;;;;;;5073392;28;20475;-77
2022/08/22 05:16:51;;;;;;;8.50;6.70;;;;;;;;;;5073270;28;20464;-76
2022/08/22 05:19:20;;;;;;;8.87;7.40;;;;;;;;;;5073675;28;20433;-77
2022/08/22 05:21:49;;;;;;;12.73;7.20;;;;;;;;;;5073358;28;20445;-75
2022/08/22 05:24:21;;;;;;;7.73;6.57;;;;;;;;;;5072792;28;20494;-76
2022/08/22 05:26:51;;;;;;;7.87;6.80;;;;;;;;;;5073140;28;20468;-76
2022/08/22 05:29:22;;;;;;;7.10;6.50;;;;;;;;;;5072867;28;20456;-76
2022/08/22 05:31:50;;;;;;;7.47;6.83;;;;;;;;;;5072943;28;20870;-75
2022/08/22 05:34:21;;;;;;;8.10;6.90;;;;;;;;;;5072544;28;20487;-76
2022/08/22 05:36:52;;;;;;;10.17;6.97;;;;;;;;;;5072773;28;20476;-75
2022/08/22 05:39:21;;;;;;;7.63;6.70;;;;;;;;;;5072388;28;20822;-76
2022/08/22 05:41:48;;;;;;;9.70;7.60;;;;;;;;;;5072766;28;20459;-75
2022/08/22 05:44:18;;;;;;;9.10;6.70;;;;;;;;;;5072308;28;20446;-75
2022/08/22 05:46:46;;;;;;;8.07;7.23;;;;;;;;;;5072411;28;20460;-76
2022/08/22 05:49:17;;;;;;;7.73;6.80;;;;;;;;;;5072721;28;20445;-75
2022/08/22 05:51:48;;;;;;;8.27;7.50;;;;;;;;;;5072333;28;20480;-77
2022/08/22 05:54:18;;;;;;;9.17;7.37;;;;;;;;;;5071786;28;20929;-76
2022/08/22 05:56:46;;;;;;;8.70;7.87;;;;;;;;;;5078119;28;20463;-77
2022/08/22 05:59:20;;;;;;;9.40;8.00;;;;;;;;;;5092501;28;20947;-76
2022/08/22 06:01:51;;;;;;;7.90;7.10;;;;;;;;;;5085052;28;20530;-76
2022/08/22 06:04:23;;;;;;;10.23;7.67;;;;;;;;;;5093780;28;20444;-76
2022/08/22 06:06:55;;;;;;;8.53;7.63;;;;;;;;;;5092910;28;20463;-76
2022/08/22 06:09:29;;;;;;;8.00;7.20;;;;;;;;;;5092467;28;20448;-75
2022/08/22 06:11:59;;;;;;;8.33;7.43;;;;;;;;;;5092432;28;20480;-76
2022/08/22 06:14:30;;;;;;;8.47;7.67;;;;;;;;;;5091926;28;20473;-76
2022/08/22 06:17:00;;;;;;;9.00;8.10;;;;;;;;;;5092505;28;20513;-74
2022/08/22 06:19:27;;;;;;;7.87;7.07;;;;;;;;;;5092060;28;20436;-76
2022/08/22 06:21:56;;;;;;;8.53;7.80;;;;;;;;;;5092282;28;21157;-76
2022/08/22 06:24:25;;;;;;;9.27;7.73;;;;;;;;;;5092092;28;20444;-76
2022/08/22 06:26:53;;;;;;;11.43;10.53;;;;;;;;;;5092498;28;20464;-76
2022/08/22 06:29:29;;;;;;;8.20;7.17;;;;;;;;;;5092450;28;20440;-76
2022/08/22 06:31:56;;;;;;;9.07;6.83;;;;;;;;;;5091950;28;20479;-76
2022/08/22 06:34:25;;;;;;;11.67;7.60;;;;;;;;;;5092159;28;20476;-77
2022/08/22 06:36:53;;;;;;;7.93;6.40;;;;;;;;;;5092453;28;20509;-76
2022/08/22 06:39:22;;;;;;;7.00;6.43;;;;;;;;;;5083995;28;20510;-77
2022/08/22 06:41:53;;;;;;;7.30;6.60;;;;;;;;;;5090170;28;20462;-76
2022/08/22 06:44:22;;;;;;;7.10;6.40;;;;;;;;;;5092195;28;20444;-75
2022/08/22 06:46:52;;;;;;;7.83;7.03;;;;;;;;;;5093618;28;20463;-75
2022/08/22 06:49:19;;;;;;;7.13;6.53;;;;;;;;;;5094683;28;20543;-76
2022/08/22 06:51:47;;;;;;;7.00;6.30;;;;;;;;;;5094861;28;20982;-76
2022/08/22 06:54:16;;;;;;;6.87;6.33;;;;;;;;;;5094781;28;20485;-76
2022/08/22 06:56:46;;;;;;;8.20;5.83;;;;;;;;;;5094861;28;20460;-76
2022/08/22 06:59:15;;;;;;;7.40;6.10;;;;;;;;;;5092241;28;20485;-76
2022/08/22 07:01:45;;;;;;;7.03;6.33;;;;;;;;;;5090877;28;20776;-76
2022/08/22 07:04:13;;;;;;;6.53;5.90;;;;;;;;;;5091708;28;20440;-77
2022/08/22 07:06:41;;;;;;;6.90;6.30;;;;;;;;;;5091479;28;20460;-77
2022/08/22 07:09:17;;;;;;;8.03;6.73;;;;;;;;;;5092029;28;20819;-76
2022/08/22 07:11:44;;;;;;;7.57;6.87;;;;;;;;;;5093091;28;20819;-76
2022/08/22 07:14:12;;;;;;;6.87;6.10;;;;;;;;;;5092606;28;20497;-76
2022/08/22 07:16:44;;;;;;;7.23;6.47;;;;;;;;;;5091278;28;20456;-76
2022/08/22 07:19:22;;;;;;;6.93;6.10;;;;;;;;;;5091176;28;20931;-76
2022/08/22 07:21:49;;;;;;;6.27;5.77;;;;;;;;;;5091193;28;20436;-76
2022/08/22 07:24:18;;;;;;;6.17;5.57;;;;;;;;;;5090671;28;20513;-76
2022/08/22 07:26:48;;;;;;;12.40;6.57;;;;;;;;;;5091503;28;20554;-76
2022/08/22 07:29:19;;;;;;;7.00;5.67;;;;;;;;;;5091532;28;20454;-76
2022/08/22 07:31:51;;;;;;;6.53;5.93;;;;;;;;;;5091194;28;20836;-76
2022/08/22 07:34:25;;;;;;;5.43;5.07;;;;;;;;;;5090976;28;20446;-77
2022/08/22 07:36:58;;;;;;;5.93;5.40;;;;;;;;;;5091698;28;20975;-77
2022/08/22 07:39:30;;;;;;;5.50;5.00;;;;;;;;;;5094342;28;20526;-77
2022/08/22 07:42:01;;;;;;;6.20;5.60;;;;;;;;;;5092801;28;20469;-77
2022/08/22 07:44:32;;;;;;;5.93;5.27;;;;;;;;;;5090748;28;20875;-77
2022/08/22 07:47:01;;;;;;;5.30;4.80;;;;;;;;;;5090965;28;20868;-76
2022/08/22 07:49:31;;;;;;;5.60;5.10;;;;;;;;;;5091310;28;20436;-77
2022/08/22 07:52:00;;;;;;;8.30;5.37;;;;;;;;;;5090806;28;20505;-76
2022/08/22 07:54:31;;;;;;;5.40;4.40;;;;;;;;;;5091031;28;20439;-77
2022/08/22 07:57:01;;;;;;;5.63;5.10;;;;;;;;;;5090979;28;20468;-76
2022/08/22 07:59:29;;;;;;;20.07;17.90;;;;;;;;;;5091192;28;20565;-76
2022/08/22 08:01:58;;;;;;;5.70;5.20;;;;;;;;;;5091618;28;20440;-76
2022/08/22 08:04:28;;;;;;;5.40;5.00;;;;;;;;;;5090921;28;20439;-77
2022/08/22 08:06:57;;;;;;;5.93;5.50;;;;;;;;;;5091400;28;20871;-77
2022/08/22 08:09:27;;;;;;;5.10;4.60;;;;;;;;;;5090895;28;20873;-76
2022/08/22 08:11:54;;;;;;;5.00;4.70;;;;;;;;;;5073727;28;20432;-76
2022/08/22 08:14:22;;;;;;;5.50;5.10;;;;;;;;;;5073283;28;20448;-76
2022/08/22 08:16:53;;;;;;;5.83;5.33;;;;;;;;;;5074397;28;20530;-77
2022/08/22 08:19:20;;;;;;;6.00;4.90;;;;;;;;;;5074599;28;20505;-77
2022/08/22 08:21:49;;;;;;;6.07;5.57;;;;;;;;;;5074590;28;20842;-76
2022/08/22 08:24:25;;;;;;;5.90;5.37;;;;;;;;;;5074122;28;20441;-75
2022/08/22 08:29:38;;;;;;;7.60;5.30;;;;;;;;;;5074045;28;20411;-77
2022/08/22 08:32:06;;;;;;;6.03;4.87;;;;;;;;;;5074029;28;20526;-76
2022/08/22 08:34:33;;;;;;;6.27;5.67;;;;;;;;;;5073870;28;20444;-76
2022/08/22 08:37:05;;;;;;;5.13;4.63;;;;;;;;;;5073638;28;20900;-77
2022/08/22 08:39:36;;;;;;;6.77;5.87;;;;;;;;;;5074352;28;20452;-76
2022/08/22 08:42:23;;;;;;;6.00;5.40;;;;;;;;;;5073341;28;20517;-76
2022/08/22 08:45:00;;;;;;;5.53;5.13;;;;;;;;;;5055650;28;20440;-76
2022/08/22 08:47:33;;;;;;;6.77;5.13;;;;;;;;;;5090827;28;20811;-76
2022/08/22 08:50:11;;;;;;;8.57;5.33;;;;;;;;;;5094314;28;20452;-76
2022/08/22 08:52:52;;;;;;;6.20;5.70;;;;;;;;;;5093909;28;20540;-77
2022/08/22 08:55:21;;;;;;;7.80;5.37;;;;;;;;;;5093100;28;20474;-76
2022/08/22 08:57:57;;;;;;;7.27;4.97;;;;;;;;;;5086441;28;20472;-77
2022/08/22 09:00:29;;;;;;;5.87;5.27;;;;;;;;;;5082142;28;20471;-76
2022/08/22 09:03:03;;;;;;;5.27;4.80;;;;;;;;;;5094261;28;20428;-77
2022/08/22 09:05:48;;;;;;;8.40;5.40;;;;;;;;;;5094033;28;20867;-76
2022/08/22 09:08:41;;;;;;;6.97;5.60;;;;;;;;;;5093559;28;20466;-76
2022/08/22 09:11:34;;;;;;;6.93;5.00;;;;;;;;;;5085094;28;20440;-77
2022/08/22 09:14:15;;;;;;;6.27;4.93;;;;;;;;;;5057567;28;20483;-77
2022/08/22 09:16:55;;;;;;;6.27;5.63;;;;;;;;;;5094212;28;20467;-76
2022/08/22 09:19:43;;;;;;;6.50;6.00;;;;;;;;;;5094467;28;20419;-76
2022/08/22 09:22:22;;;;;;;4.83;4.40;;;;;;;;;;5093825;28;20440;-76
2022/08/22 09:24:59;;;;;;;5.17;4.77;;;;;;;;;;5092633;28;20440;-77
2022/08/22 09:27:31;;;;;;;5.50;5.00;;;;;;;;;;5093726;28;20440;-77
2022/08/22 09:30:04;;;;;;;7.17;5.87;;;;;;;;;;5093730;28;20509;-78
2022/08/22 09:32:35;;;;;;;6.97;6.00;;;;;;;;;;5093177;28;20483;-76
2022/08/22 09:35:13;;;;;;;5.90;5.33;;;;;;;;;;5093340;28;20513;-77
2022/08/22 09:37:45;;;;;;;7.27;5.60;;;;;;;;;;5093361;28;20470;-77
2022/08/22 09:40:14;;;;;;;5.77;4.83;;;;;;;;;;5093275;28;20946;-77
2022/08/22 09:42:44;;;;;;;5.50;4.97;;;;;;;;;;5093218;28;20542;-76
2022/08/22 09:45:41;;;;;;;5.10;4.70;;;;;;;;;;5093331;28;20447;-76
2022/08/22 09:48:16;;;;;;;5.63;5.23;;;;;;;;;;5093529;28;20455;-76
2022/08/22 09:50:47;;;;;;;5.97;5.37;;;;;;;;;;5093076;28;20446;-76
2022/08/22 09:53:31;;;;;;;5.30;4.83;;;;;;;;;;5092752;28;20821;-77
2022/08/22 09:56:03;;;;;;;5.83;5.33;;;;;;;;;;5093248;28;20504;-76
2022/08/22 09:58:36;;;;;;;5.93;5.50;;;;;;;;;;5093501;28;20819;-76
2022/08/22 10:01:08;;;;;;;5.23;4.83;;;;;;;;;;5093079;28;20466;-76
2022/08/22 10:04:05;;;;;;;4.87;4.57;;;;;;;;;;5093082;28;20551;-75
2022/08/22 10:06:36;;;;;;;5.27;4.83;;;;;;;;;;5092566;28;20459;-77
2022/08/22 10:09:05;;;;;;;4.97;4.67;;;;;;;;;;5093065;28;20448;-75
2022/08/22 10:11:34;;;;;;;5.20;4.83;;;;;;;;;;5093025;28;20449;-76
2022/08/22 10:14:02;;;;;;;5.00;4.60;;;;;;;;;;5092315;28;21143;-77
2022/08/22 10:16:36;;;;;;;4.67;4.37;;;;;;;;;;5092851;28;20997;-76
2022/08/22 10:19:15;;;;;;;5.23;4.83;;;;;;;;;;5093706;28;20621;-75
2022/08/22 10:21:47;;;;;;;5.50;3.70;;;;;;;;;;5093419;28;20447;-76
2022/08/22 10:24:18;;;;;;;5.07;4.20;;;;;;;;;;5092443;28;20489;-76
2022/08/22 10:26:49;;;;;;;4.10;3.80;;;;;;;;;;5092940;28;20517;-77
2022/08/22 10:29:34;;;;;;;3.43;3.23;;;;;;;;;;5092353;28;20475;-76
2022/08/22 10:32:05;;;;;;;5.80;3.73;;;;;;;;;;5092650;28;20435;-77
2022/08/22 10:34:37;;;;;;;4.93;4.43;;;;;;;;;;5092017;28;20480;-77
2022/08/22 10:37:09;;;;;;;4.40;4.00;;;;;;;;;;5091407;28;20468;-76
2022/08/22 10:39:42;;;;;;;3.70;3.50;;;;;;;;;;5092863;28;20443;-76
2022/08/22 10:42:18;;;;;;;4.23;3.83;;;;;;;;;;5092170;28;20448;-76
2022/08/22 10:44:53;;;;;;;4.10;3.90;;;;;;;;;;5092125;28;20444;-76
2022/08/22 10:47:22;;;;;;;5.20;4.80;;;;;;;;;;5090061;28;20515;-77
2022/08/22 10:49:50;;;;;;;4.90;4.60;;;;;;;;;;5084147;28;20448;-77
2022/08/22 10:52:22;;;;;;;4.63;4.23;;;;;;;;;;5091514;28;20469;-76
2022/08/22 10:54:52;;;;;;;4.47;4.17;;;;;;;;;;5083247;28;20563;-76
2022/08/22 10:57:26;;;;;;;4.40;4.10;;;;;;;;;;5091767;28;20466;-76
2022/08/22 10:59:59;;;;;;;4.50;4.20;;;;;;;;;;5089938;28;20439;-75
2022/08/22 11:02:38;;;;;;;4.77;4.37;;;;;;;;;;5088586;28;20816;-76
2022/08/22 11:05:23;;;;;;;5.03;3.77;;;;;;;;;;5091910;28;20977;-76
2022/08/22 11:07:57;;;;;;;3.70;3.40;;;;;;;;;;5083608;28;20436;-75
2022/08/22 11:10:28;;;;;;;4.70;3.50;;;;;;;;;;5091853;28;20448;-76
2022/08/22 11:13:04;;;;;;;4.40;4.00;;;;;;;;;;5091346;28;20885;-76
2022/08/22 11:15:49;;;;;;;4.10;3.80;;;;;;;;;;5091674;28;21686;-76
2022/08/22 11:18:21;;;;;;;4.17;3.87;;;;;;;;;;5091947;28;20838;-77
2022/08/22 11:20:56;;;;;;;4.60;4.30;;;;;;;;;;5091896;28;20451;-77
2022/08/22 11:23:30;;;;;;;4.47;4.07;;;;;;;;;;5091204;28;20446;-76
2022/08/22 11:26:02;;;;;;;4.63;4.33;;;;;;;;;;5092003;28;20469;-77
2022/08/22 11:28:33;;;;;;;3.90;3.70;;;;;;;;;;5093134;28;20846;-76
2022/08/22 11:31:04;;;;;;;4.17;3.90;;;;;;;;;;5092471;28;20488;-76
2022/08/22 11:33:36;;;;;;;4.40;4.10;;;;;;;;;;5092073;28;20471;-76
2022/08/22 11:36:11;;;;;;;5.43;4.63;;;;;;;;;;5092593;28;20538;-77
2022/08/22 11:38:44;;;;;;;4.43;4.10;;;;;;;;;;5091767;28;20458;-77
2022/08/22 11:41:15;;;;;;;4.13;3.83;;;;;;;;;;5091876;28;20444;-76
2022/08/22 11:43:51;;;;;;;4.33;3.93;;;;;;;;;;5092126;28;20473;-76
2022/08/22 11:46:20;;;;;;;4.10;3.80;;;;;;;;;;5092764;28;20463;-76
2022/08/22 11:48:55;;;;;;;4.03;3.77;;;;;;;;;;5094009;28;20923;-76
2022/08/22 11:51:30;;;;;;;4.00;3.60;;;;;;;;;;5096256;28;20451;-76
2022/08/22 11:54:03;;;;;;;3.83;3.40;;;;;;;;;;5095312;28;20471;-76
2022/08/22 11:56:33;;;;;;;4.43;3.30;;;;;;;;;;5094878;28;20979;-76
2022/08/22 11:59:02;;;;;;;4.30;3.97;;;;;;;;;;5095186;28;20986;-77
2022/08/22 12:01:36;;;;;;;5.13;4.73;;;;;;;;;;5095611;28;20450;-76
2022/08/22 12:04:09;;;;;;;8.47;3.87;;;;;;;;;;5095507;28;20981;-76
2022/08/22 12:07:00;;;;;;;4.80;4.33;;;;;;;;;;5095100;28;21044;-76
2022/08/22 12:09:32;;;;;;;4.40;4.07;;;;;;;;;;5095172;28;20826;-77
2022/08/22 12:12:02;;;;;;;4.97;4.57;;;;;;;;;;5077237;28;20432;-77
2022/08/22 12:14:34;;;;;;;4.60;4.30;;;;;;;;;;5074401;28;20538;-78
2022/08/22 12:17:08;;;;;;;4.17;3.80;;;;;;;;;;5075322;28;20564;-77
2022/08/22 12:19:40;;;;;;;4.10;3.80;;;;;;;;;;5074783;28;20448;-78
2022/08/22 12:22:15;;;;;;;3.83;3.57;;;;;;;;;;5074674;28;20445;-77
2022/08/22 12:24:51;;;;;;;3.93;3.60;;;;;;;;;;5074382;28;20481;-76
2022/08/22 12:27:39;;;;;;;6.07;4.07;;;;;;;;;;5074613;28;20472;-76
2022/08/22 12:30:12;;;;;;;4.47;4.10;;;;;;;;;;5072613;28;20520;-77
2022/08/22 12:32:49;;;;;;;3.97;3.67;;;;;;;;;;5074246;28;20523;-77
2022/08/22 12:35:22;;;;;;;4.10;3.80;;;;;;;;;;5074128;28;20464;-76
2022/08/22 12:37:53;;;;;;;4.47;4.07;;;;;;;;;;5074055;28;20853;-76
2022/08/22 12:40:26;;;;;;;3.80;3.60;;;;;;;;;;5073861;28;20459;-76
2022/08/22 12:43:03;;;;;;;3.90;3.63;;;;;;;;;;5073891;28;20952;-77
2022/08/22 12:45:39;;;;;;;3.87;3.57;;;;;;;;;;5074207;28;20464;-77
2022/08/22 12:48:12;;;;;;;3.87;3.57;;;;;;;;;;5074546;28;20449;-77
2022/08/22 12:50:43;;;;;;;4.17;3.83;;;;;;;;;;5074630;28;20448;-76
2022/08/22 12:53:31;;;;;;;3.90;3.57;;;;;;;;;;5073696;28;20444;-76
2022/08/22 12:56:15;;;;;;;3.53;3.23;;;;;;;;;;5070618;28;20475;-75
2022/08/22 12:58:51;;;;;;;4.33;3.73;;;;;;;;;;5073918;28;20441;-76
2022/08/22 13:01:19;;;;;;;4.17;3.77;;;;;;;;;;5073416;28;20448;-76
2022/08/22 13:03:48;;;;;;;10.53;9.73;;;;;;;;;;5075046;28;20441;-76
2022/08/22 13:06:36;;;;;;;4.20;3.90;;;;;;;;;;5076041;28;20992;-77
2022/08/22 13:09:04;;;;;;;4.03;3.23;;;;;;;;;;5066091;28;20521;-77
2022/08/22 13:11:37;;;;;;;3.20;3.10;;;;;;;;;;5088879;28;20966;-76
2022/08/22 13:14:04;;;;;;;3.70;3.40;;;;;;;;;;5093574;28;20567;-77
2022/08/22 13:16:37;;;;;;;3.50;3.30;;;;;;;;;;5094154;28;20533;-77
2022/08/22 13:19:07;;;;;;;3.37;3.17;;;;;;;;;;5095615;28;20458;-77
2022/08/22 13:21:38;;;;;;;3.80;3.40;;;;;;;;;;5095060;28;20484;-77
2022/08/22 13:24:07;;;;;;;3.10;2.90;;;;;;;;;;5095131;28;20435;-77
2022/08/22 13:26:37;;;;;;;3.80;3.50;;;;;;;;;;5094493;28;20459;-77
2022/08/22 13:29:06;;;;;;;3.60;3.30;;;;;;;;;;5095044;28;20456;-77
2022/08/22 13:31:34;;;;;;;3.40;3.10;;;;;;;;;;5093853;28;20803;-78
2022/08/22 13:34:03;;;;;;;6.33;3.40;;;;;;;;;;5094153;28;20482;-77
2022/08/22 13:36:32;;;;;;;3.37;3.17;;;;;;;;;;5094025;28;20467;-77
2022/08/22 13:39:02;;;;;;;4.40;3.57;;;;;;;;;;5093201;28;20489;-75
2022/08/22 13:41:31;;;;;;;3.63;3.33;;;;;;;;;;5093533;28;20446;-76
2022/08/22 13:44:12;;;;;;;4.10;3.60;;;;;;;;;;5092948;28;20435;-77
2022/08/22 13:46:41;;;;;;;6.50;3.93;;;;;;;;;;5093182;28;20890;-76
2022/08/22 13:49:11;;;;;;;3.80;3.50;;;;;;;;;;5092955;28;20931;-76
2022/08/22 13:51:41;;;;;;;3.50;3.20;;;;;;;;;;5091878;28;20444;-77
2022/08/22 13:54:20;;;;;;;3.97;3.77;;;;;;;;;;5093529;28;20558;-76
2022/08/22 13:56:52;;;;;;;3.17;2.97;;;;;;;;;;5091832;28;21060;-76
2022/08/22 13:59:25;;;;;;;3.50;3.20;;;;;;;;;;5092653;28;20444;-77
2022/08/22 14:01:59;;;;;;;3.40;3.20;;;;;;;;;;5085249;28;20436;-77
2022/08/22 14:04:42;;;;;;;5.10;3.33;;;;;;;;;;5076790;28;20544;-76
2022/08/22 14:07:27;;;;;;;3.00;2.80;;;;;;;;;;5085585;28;20509;-76
2022/08/22 14:09:55;;;;;;;4.13;3.37;;;;;;;;;;5091500;28;20447;-76
2022/08/22 14:12:23;;;;;;;3.67;3.47;;;;;;;;;;5086904;28;20527;-76
2022/08/22 14:14:56;;;;;;;3.33;3.13;;;;;;;;;;5085649;28;20890;-77
2022/08/22 14:17:24;;;;;;;3.63;3.23;;;;;;;;;;5081933;28;20807;-77
2022/08/22 14:19:53;;;;;;;4.10;3.27;;;;;;;;;;5082803;28;20431;-77
2022/08/22 14:22:22;;;;;;;3.90;3.57;;;;;;;;;;5083182;28;20860;-76
2022/08/22 14:24:52;;;;;;;3.80;3.50;;;;;;;;;;5091371;28;20505;-77
2022/08/22 14:27:28;;;;;;;3.17;3.00;;;;;;;;;;5091810;28;20486;-77
2022/08/22 14:29:58;;;;;;;4.60;3.40;;;;;;;;;;5091848;28;20435;-77
2022/08/22 14:32:31;;;;;;;6.70;3.43;;;;;;;;;;5091413;28;20744;-77
2022/08/22 14:35:02;;;;;;;3.33;3.10;;;;;;;;;;5091443;28;20494;-78
2022/08/22 14:37:30;;;;;;;3.20;2.90;;;;;;;;;;5093525;28;20443;-76
2022/08/22 14:40:01;;;;;;;4.00;3.30;;;;;;;;;;5097433;28;20547;-77
2022/08/22 14:42:30;;;;;;;3.70;3.40;;;;;;;;;;5096639;28;21008;-77
2022/08/22 14:45:05;;;;;;;3.00;2.80;;;;;;;;;;5093403;28;20444;-77
2022/08/22 14:47:34;;;;;;;4.80;2.90;;;;;;;;;;5097350;28;20454;-77
2022/08/22 14:53:03;;;;;;;4.27;3.20;;;;;;;;;;5095851;28;20753;-76
2022/08/22 14:55:33;;;;;;;3.43;3.13;;;;;;;;;;5095294;28;20514;-77
2022/08/22 14:58:08;;;;;;;3.90;3.60;;;;;;;;;;5089757;28;20447;-77
2022/08/22 15:00:43;;;;;;;3.10;2.90;;;;;;;;;;5091149;28;20460;-76
2022/08/22 15:03:18;;;;;;;3.37;3.00;;;;;;;;;;5089777;28;20901;-77
2022/08/22 15:05:55;;;;;;;3.23;2.90;;;;;;;;;;5090621;28;20464;-77
2022/08/22 15:08:37;;;;;;;3.70;3.40;;;;;;;;;;5087408;28;20578;-77
2022/08/22 15:20:26;;;;;;;3.23;3.03;;;;;;;;;;5090408;28;20533;-77
2022/08/22 15:23:01;;;;;;;3.37;3.13;;;;;;;;;;5090479;28;20901;-77
2022/08/22 15:25:34;;;;;;;3.43;3.17;;;;;;;;;;5090722;28;20460;-77
2022/08/22 15:53:09;;;;;;;3.67;3.40;;;;;;;;;;5050429;28;20444;-76
2022/08/22 15:56:00;;;;;;;3.23;3.03;;;;;;;;;;5089925;28;20480;-75
2022/08/22 15:58:41;;;;;;;3.43;3.23;;;;;;;;;;5089090;28;20443;-77
2022/08/22 16:01:17;;;;;;;4.37;3.30;;;;;;;;;;5088844;28;20462;-76